ANA1868 ROAH-RJFT
Flight info
| Callsign | ANA1868 |
|---|---|
| Flight time | N/A |
| Altitude | 35000 |
| Route | AMAMI Y25 KOSHI Y501 SASIK Y14 HINAG |
| Aircraft | B738/M-SDE2E3FGHIRWXY/LB1 |
Departure
| Time | 2026-04-15 14:13 |
|---|---|
| Airport | Naha International Airport (ROAH) |
Arrival
| Time | N/A |
|---|---|
| Airport | Kumamoto Airport (RJFT) |
| Time | Latitude | Longitude | Altitude | Speed | Heading |
|---|---|---|---|---|---|
| 2026-04-15 13:55 | 26.20564 | 127.64935 | 18 ft | 0 kts | 146° |
| 2026-04-15 13:57 | 26.20568 | 127.64932 | 19 ft | 3 kts | 146° |
| 2026-04-15 13:58 | 26.20584 | 127.64920 | 19 ft | 3 kts | 146° |
| 2026-04-15 13:58 | 26.20600 | 127.64909 | 20 ft | 3 kts | 146° |
| 2026-04-15 13:58 | 26.20615 | 127.64897 | 20 ft | 3 kts | 146° |
| 2026-04-15 13:58 | 26.20631 | 127.64885 | 20 ft | 3 kts | 146° |
| 2026-04-15 13:59 | 26.20646 | 127.64874 | 21 ft | 2 kts | 146° |
| 2026-04-15 13:59 | 26.20647 | 127.64874 | 21 ft | 0 kts | 146° |
| 2026-04-15 14:01 | 26.20624 | 127.64869 | 20 ft | 7 kts | 209° |
| 2026-04-15 14:01 | 26.20588 | 127.64818 | 20 ft | 9 kts | 243° |
| 2026-04-15 14:02 | 26.20539 | 127.64777 | 19 ft | 9 kts | 219° |
| 2026-04-15 14:02 | 26.20489 | 127.64741 | 20 ft | 9 kts | 207° |
| 2026-04-15 14:02 | 26.20436 | 127.64713 | 19 ft | 8 kts | 206° |
| 2026-04-15 14:02 | 26.20386 | 127.64719 | 21 ft | 8 kts | 130° |
| 2026-04-15 14:03 | 26.20349 | 127.64764 | 18 ft | 8 kts | 152° |
| 2026-04-15 14:03 | 26.20294 | 127.64768 | 18 ft | 8 kts | 178° |
| 2026-04-15 14:03 | 26.20240 | 127.64771 | 18 ft | 8 kts | 179° |
| 2026-04-15 14:03 | 26.20189 | 127.64771 | 18 ft | 7 kts | 180° |
| 2026-04-15 14:04 | 26.20139 | 127.64771 | 18 ft | 7 kts | 175° |
| 2026-04-15 14:04 | 26.20091 | 127.64777 | 18 ft | 7 kts | 173° |
| 2026-04-15 14:04 | 26.20043 | 127.64781 | 18 ft | 7 kts | 182° |
| 2026-04-15 14:04 | 26.19997 | 127.64784 | 18 ft | 7 kts | 176° |
| 2026-04-15 14:05 | 26.19952 | 127.64786 | 18 ft | 7 kts | 178° |
| 2026-04-15 14:05 | 26.19907 | 127.64787 | 18 ft | 6 kts | 179° |
| 2026-04-15 14:05 | 26.19862 | 127.64787 | 18 ft | 7 kts | 180° |
| 2026-04-15 14:05 | 26.19809 | 127.64790 | 18 ft | 8 kts | 176° |
| 2026-04-15 14:06 | 26.19756 | 127.64793 | 18 ft | 9 kts | 177° |
| 2026-04-15 14:06 | 26.19680 | 127.64796 | 18 ft | 11 kts | 179° |
| 2026-04-15 14:06 | 26.19603 | 127.64800 | 18 ft | 11 kts | 176° |
| 2026-04-15 14:06 | 26.19527 | 127.64804 | 18 ft | 11 kts | 176° |
| 2026-04-15 14:07 | 26.19454 | 127.64808 | 18 ft | 10 kts | 181° |
| 2026-04-15 14:07 | 26.19384 | 127.64814 | 18 ft | 10 kts | 169° |
| 2026-04-15 14:07 | 26.19315 | 127.64818 | 18 ft | 10 kts | 183° |
| 2026-04-15 14:07 | 26.19248 | 127.64818 | 20 ft | 10 kts | 178° |
| 2026-04-15 14:08 | 26.19182 | 127.64819 | 18 ft | 9 kts | 179° |
| 2026-04-15 14:08 | 26.19118 | 127.64822 | 18 ft | 9 kts | 177° |
| 2026-04-15 14:08 | 26.19056 | 127.64825 | 18 ft | 9 kts | 177° |
| 2026-04-15 14:08 | 26.18996 | 127.64828 | 18 ft | 9 kts | 177° |
| 2026-04-15 14:09 | 26.18938 | 127.64831 | 18 ft | 8 kts | 178° |
| 2026-04-15 14:09 | 26.18882 | 127.64834 | 18 ft | 8 kts | 178° |
| 2026-04-15 14:09 | 26.18826 | 127.64836 | 18 ft | 8 kts | 178° |
| 2026-04-15 14:09 | 26.18759 | 127.64839 | 18 ft | 10 kts | 177° |
| 2026-04-15 14:10 | 26.18691 | 127.64844 | 20 ft | 10 kts | 176° |
| 2026-04-15 14:10 | 26.18625 | 127.64848 | 18 ft | 9 kts | 177° |
| 2026-04-15 14:10 | 26.18561 | 127.64846 | 20 ft | 9 kts | 191° |
| 2026-04-15 14:10 | 26.18516 | 127.64802 | 17 ft | 9 kts | 249° |
| 2026-04-15 14:11 | 26.18511 | 127.64734 | 17 ft | 9 kts | 264° |
| 2026-04-15 14:11 | 26.18515 | 127.64669 | 17 ft | 8 kts | 295° |
| 2026-04-15 14:11 | 26.18566 | 127.64641 | 17 ft | 8 kts | 353° |
| 2026-04-15 14:11 | 26.18590 | 127.64640 | 17 ft | 0 kts | 357° |
| 2026-04-15 14:12 | 26.18610 | 127.64639 | 17 ft | 14 kts | 358° |
| 2026-04-15 14:12 | 26.18908 | 127.64628 | 20 ft | 72 kts | 358° |
| 2026-04-15 14:12 | 26.19596 | 127.64594 | 17 ft | 124 kts | 357° |
| 2026-04-15 14:13 | 26.20597 | 127.64552 | 92 ft | 157 kts | 358° |
| 2026-04-15 14:13 | 26.21653 | 127.64442 | 639 ft | 153 kts | 350° |
| 2026-04-15 14:13 | 26.22798 | 127.64192 | 749 ft | 183 kts | 348° |
| 2026-04-15 14:13 | 26.24004 | 127.63897 | 1534 ft | 165 kts | 346° |
| 2026-04-15 14:14 | 26.25132 | 127.63772 | 2157 ft | 168 kts | 3° |
| 2026-04-15 14:14 | 26.26356 | 127.63574 | 2320 ft | 192 kts | 328° |
| 2026-04-15 14:14 | 26.27188 | 127.62357 | 2512 ft | 212 kts | 289° |
| 2026-04-15 14:14 | 26.27578 | 127.60760 | 2986 ft | 214 kts | 289° |
| 2026-04-15 14:15 | 26.28014 | 127.59189 | 3565 ft | 211 kts | 289° |
| 2026-04-15 14:15 | 26.28488 | 127.57629 | 4040 ft | 214 kts | 290° |
| 2026-04-15 14:15 | 26.28982 | 127.56088 | 4580 ft | 213 kts | 290° |
| 2026-04-15 14:15 | 26.29502 | 127.54531 | 5017 ft | 215 kts | 291° |
| 2026-04-15 14:16 | 26.30037 | 127.52981 | 5494 ft | 215 kts | 291° |
| 2026-04-15 14:16 | 26.30588 | 127.51417 | 5930 ft | 217 kts | 291° |
| 2026-04-15 14:16 | 26.31147 | 127.49853 | 6396 ft | 218 kts | 292° |
| 2026-04-15 14:16 | 26.31712 | 127.48282 | 6827 ft | 219 kts | 291° |
| 2026-04-15 14:17 | 26.32294 | 127.46668 | 7034 ft | 232 kts | 291° |
| 2026-04-15 14:17 | 26.32774 | 127.44906 | 7219 ft | 247 kts | 274° |
| 2026-04-15 14:17 | 26.32460 | 127.42961 | 7403 ft | 267 kts | 245° |
| 2026-04-15 14:17 | 26.31228 | 127.41372 | 7846 ft | 281 kts | 214° |
| 2026-04-15 14:18 | 26.29343 | 127.40719 | 8383 ft | 292 kts | 186° |
| 2026-04-15 14:18 | 26.27295 | 127.40736 | 8969 ft | 296 kts | 181° |
| 2026-04-15 14:18 | 26.25221 | 127.40830 | 9523 ft | 300 kts | 181° |
| 2026-04-15 14:18 | 26.23125 | 127.40916 | 10071 ft | 303 kts | 182° |
| 2026-04-15 14:19 | 26.20983 | 127.40979 | 10338 ft | 317 kts | 182° |
| 2026-04-15 14:19 | 26.18717 | 127.41020 | 10472 ft | 334 kts | 182° |
| 2026-04-15 14:19 | 26.16332 | 127.41048 | 10606 ft | 350 kts | 182° |
| 2026-04-15 14:19 | 26.13862 | 127.41167 | 10929 ft | 362 kts | 172° |
| 2026-04-15 14:20 | 26.11487 | 127.42164 | 11406 ft | 371 kts | 149° |
| 2026-04-15 14:20 | 26.09597 | 127.44118 | 11945 ft | 377 kts | 126° |
| 2026-04-15 14:20 | 26.08512 | 127.46774 | 12421 ft | 382 kts | 101° |
| 2026-04-15 14:20 | 26.08334 | 127.49733 | 12656 ft | 392 kts | 90° |
| 2026-04-15 14:21 | 26.08194 | 127.52801 | 13084 ft | 393 kts | 95° |
| 2026-04-15 14:21 | 26.07880 | 127.55689 | 14540 ft | 357 kts | 99° |
| 2026-04-15 14:21 | 26.07462 | 127.58272 | 15842 ft | 325 kts | 102° |
| 2026-04-15 14:21 | 26.06974 | 127.60700 | 15645 ft | 326 kts | 104° |
| 2026-04-15 14:22 | 26.06378 | 127.63292 | 13903 ft | 371 kts | 106° |
| 2026-04-15 14:22 | 26.05684 | 127.66030 | 11994 ft | 419 kts | 107° |
| 2026-04-15 14:22 | 26.04814 | 127.69164 | 11559 ft | 416 kts | 108° |
| 2026-04-15 14:22 | 26.03953 | 127.72029 | 12630 ft | 363 kts | 109° |
| 2026-04-15 14:23 | 26.03035 | 127.74512 | 12903 ft | 342 kts | 127° |
| 2026-04-15 14:23 | 26.01366 | 127.76252 | 12846 ft | 321 kts | 156° |
| 2026-04-15 14:23 | 25.99306 | 127.76864 | 12749 ft | 299 kts | 187° |
| 2026-04-15 14:23 | 25.97408 | 127.76283 | 12648 ft | 275 kts | 218° |
| 2026-04-15 14:24 | 25.95980 | 127.75023 | 12594 ft | 262 kts | 213° |
| 2026-04-15 14:24 | 25.94246 | 127.74482 | 12466 ft | 260 kts | 186° |
| 2026-04-15 14:24 | 25.92460 | 127.74460 | 12202 ft | 256 kts | 185° |
| 2026-04-15 14:24 | 25.90671 | 127.74464 | 11744 ft | 258 kts | 184° |
| 2026-04-15 14:25 | 25.88872 | 127.74469 | 11335 ft | 258 kts | 184° |
| 2026-04-15 14:25 | 25.87111 | 127.74289 | 10920 ft | 251 kts | 206° |
| 2026-04-15 14:25 | 25.85571 | 127.73436 | 10566 ft | 245 kts | 213° |
| 2026-04-15 14:25 | 25.84088 | 127.72502 | 10189 ft | 245 kts | 214° |
| 2026-04-15 14:26 | 25.82609 | 127.71563 | 9822 ft | 245 kts | 214° |
| 2026-04-15 14:26 | 25.81138 | 127.70625 | 9431 ft | 243 kts | 214° |
| 2026-04-15 14:26 | 25.79678 | 127.69685 | 9066 ft | 241 kts | 217° |
| 2026-04-15 14:26 | 25.78596 | 127.68351 | 8618 ft | 232 kts | 253° |
| 2026-04-15 14:27 | 25.78271 | 127.66632 | 8263 ft | 227 kts | 264° |
| 2026-04-15 14:27 | 25.78055 | 127.64898 | 7884 ft | 227 kts | 264° |
| 2026-04-15 14:27 | 25.77934 | 127.63170 | 7508 ft | 224 kts | 281° |
| 2026-04-15 14:27 | 25.78552 | 127.61609 | 7115 ft | 223 kts | 308° |
| 2026-04-15 14:28 | 25.79740 | 127.60519 | 6744 ft | 225 kts | 335° |
| 2026-04-15 14:28 | 25.81279 | 127.60207 | 6467 ft | 225 kts | 359° |
| 2026-04-15 14:28 | 25.82787 | 127.60379 | 6393 ft | 212 kts | 4° |
| 2026-04-15 14:28 | 25.84218 | 127.60620 | 6135 ft | 206 kts | 5° |
| 2026-04-15 14:29 | 25.85632 | 127.60864 | 5775 ft | 205 kts | 5° |
| 2026-04-15 14:29 | 25.87041 | 127.61103 | 5428 ft | 204 kts | 5° |
| 2026-04-15 14:29 | 25.88441 | 127.61338 | 5088 ft | 203 kts | 5° |
| 2026-04-15 14:29 | 25.89819 | 127.61567 | 4826 ft | 197 kts | 5° |
| 2026-04-15 14:30 | 25.91165 | 127.61788 | 4530 ft | 194 kts | 5° |
| 2026-04-15 14:30 | 25.92486 | 127.62004 | 4213 ft | 192 kts | 5° |
| 2026-04-15 14:30 | 25.93801 | 127.62218 | 3904 ft | 189 kts | 5° |
| 2026-04-15 14:30 | 25.95100 | 127.62428 | 3592 ft | 188 kts | 5° |
| 2026-04-15 14:31 | 25.96387 | 127.62636 | 3279 ft | 186 kts | 5° |
| 2026-04-15 14:31 | 25.97662 | 127.62841 | 2978 ft | 184 kts | 5° |
| 2026-04-15 14:31 | 25.98924 | 127.63044 | 2706 ft | 182 kts | 5° |
| 2026-04-15 14:31 | 26.00170 | 127.63244 | 2375 ft | 181 kts | 6° |
| 2026-04-15 14:32 | 26.01408 | 127.63443 | 2099 ft | 177 kts | 7° |
| 2026-04-15 14:32 | 26.02617 | 127.63637 | 2033 ft | 175 kts | 6° |
| 2026-04-15 14:32 | 26.03831 | 127.63832 | 2007 ft | 177 kts | 6° |
| 2026-04-15 14:32 | 26.05047 | 127.63928 | 2001 ft | 178 kts | 359° |
| 2026-04-15 14:33 | 26.06289 | 127.63898 | 1996 ft | 179 kts | 357° |
| 2026-04-15 14:33 | 26.07533 | 127.63843 | 1996 ft | 179 kts | 356° |
| 2026-04-15 14:33 | 26.08808 | 127.63781 | 1815 ft | 184 kts | 357° |
| 2026-04-15 14:33 | 26.10089 | 127.63783 | 1560 ft | 183 kts | 10° |
| 2026-04-15 14:34 | 26.11308 | 127.64179 | 1188 ft | 180 kts | 15° |
| 2026-04-15 14:34 | 26.12464 | 127.64562 | 1003 ft | 173 kts | 10° |
| 2026-04-15 14:34 | 26.13622 | 127.64740 | 1013 ft | 157 kts | 1° |
| 2026-04-15 14:34 | 26.14657 | 127.64786 | 983 ft | 146 kts | 1° |
| 2026-04-15 14:35 | 26.15689 | 127.64786 | 764 ft | 151 kts | 354° |
| 2026-04-15 14:35 | 26.16753 | 127.64689 | 481 ft | 155 kts | 0° |
| 2026-04-15 14:35 | 26.17845 | 127.64677 | 197 ft | 159 kts | 358° |
| 2026-04-15 14:35 | 26.18929 | 127.64626 | 23 ft | 146 kts | 4° |
| 2026-04-15 14:36 | 26.19845 | 127.64583 | 16 ft | 109 kts | 357° |
| 2026-04-15 14:36 | 26.20436 | 127.64555 | 20 ft | 70 kts | 358° |
| 2026-04-15 14:36 | 26.20637 | 127.64550 | 23 ft | 15 kts | 357° |
| 2026-04-15 14:36 | 26.20743 | 127.64543 | 21 ft | 15 kts | 356° |
| 2026-04-15 14:37 | 26.20810 | 127.64538 | 21 ft | 14 kts | 358° |
| 2026-04-15 14:37 | 26.20896 | 127.64591 | 20 ft | 14 kts | 41° |
| 2026-04-15 14:37 | 26.20902 | 127.64688 | 19 ft | 13 kts | 110° |
| 2026-04-15 14:37 | 26.20882 | 127.64783 | 19 ft | 13 kts | 119° |
| 2026-04-15 14:38 | 26.20834 | 127.64847 | 21 ft | 0 kts | 132° |